Time;durP1;ratioP1;P1;durP2;ratioP2;P2;SDS_P1;SDS_P2;PMS_P1;PMS_P2;Temp;Humidity;BMP_temperature;BMP_pressure;BME280_temperature;BME280_humidity;BME280_pressure;Samples;Min_cycle;Max_cycle;Signal;HPM_P1;HPM_P2
2022/03/17 00:02:17;;;;;;;58.38;22.42;;;;;;;5.66;90.02;93317.84;5025190;28;20065;-89
2022/03/17 00:05:08;;;;;;;58.72;22.05;;;;;;;5.75;90.16;93329.41;5004450;28;20103;-89
2022/03/17 00:08:05;;;;;;;61.20;22.27;;;;;;;5.74;90.12;93322.63;5016423;28;20084;-89
2022/03/17 00:10:43;;;;;;;62.97;23.17;;;;;;;5.88;90.26;93331.72;5005086;28;20108;-89
2022/03/17 00:13:46;;;;;;;;;;;;;;;;;;;;;
2022/03/17 00:20:28;;;;;;;62.03;22.77;;;;;;;6.25;90.71;93380.63;5033802;28;20093;-89
2022/03/17 00:22:54;;;;;;;68.00;24.42;;;;;;;6.28;90.40;93377.56;5000173;28;20049;-89
2022/03/17 00:25:19;;;;;;;62.67;23.50;;;;;;;6.31;90.48;93377.09;4983257;28;20034;-88
2022/03/17 00:27:45;;;;;;;75.82;24.13;;;;;;;6.21;89.82;93356.94;4999428;28;20049;-89
2022/03/17 00:30:31;;;;;;;;;;;;;;;;;;;;;
2022/03/17 00:33:15;;;;;;;59.55;23.08;;;;;;;6.01;90.21;93312.41;5033547;28;20041;-89
2022/03/17 00:35:58;;;;;;;65.00;24.02;;;;;;;6.00;90.30;93319.44;5002686;28;20037;-89
2022/03/17 00:38:55;;;;;;;72.18;23.05;;;;;;;6.36;90.21;93364.16;5000842;28;20050;-89
2022/03/17 00:42:01;;;;;;;;;;;;;;;;;;;;;
2022/03/17 00:44:57;;;;;;;;;;;;;;;;;;;;;
2022/03/17 00:47:46;;;;;;;64.93;24.25;;;;;;;6.09;89.97;93316.44;5019749;28;20047;-89
2022/03/17 00:51:03;;;;;;;69.68;24.90;;;;;;;6.11;90.10;93311.81;5017182;28;20398;-89
2022/03/17 00:54:25;;;;;;;66.70;24.27;;;;;;;6.51;90.19;93366.22;5006000;28;20080;-88
2022/03/17 00:57:11;;;;;;;68.40;25.13;;;;;;;6.13;90.25;93307.16;5017139;28;20040;-89
2022/03/17 01:00:10;;;;;;;;;;;;;;;;;;;;;
2022/03/17 01:03:26;;;;;;;67.63;23.63;;;;;;;6.41;90.27;93335.63;4982532;28;20050;-89
2022/03/17 01:06:40;;;;;;;;;;;;;;;;;;;;;
2022/03/17 01:09:27;;;;;;;69.00;23.38;;;;;;;6.43;91.29;93317.97;4995062;28;20034;-89
2022/03/17 01:24:11;;;;;;;;;;;;;;;;;;;;;
2022/03/17 01:30:43;;;;;;;77.22;22.95;;;;;;;6.17;90.54;93339.44;5014526;28;20040;-90
2022/03/17 01:33:23;;;;;;;58.17;21.98;;;;;;;5.93;90.66;93307.59;4966124;28;20141;-89
2022/03/17 01:36:14;;;;;;;68.45;24.40;;;;;;;6.18;91.09;93341.03;5000425;28;20466;-89
2022/03/17 01:39:05;;;;;;;;;;;;;;;;;;;;;
2022/03/17 01:42:01;;;;;;;72.72;24.10;;;;;;;6.14;90.50;93324.31;4982750;28;20124;-88
2022/03/17 01:47:56;;;;;;;;;;;;;;;;;;;;;
2022/03/17 01:50:58;;;;;;;77.93;25.15;;;;;;;5.80;90.50;93311.31;5035539;28;20042;-89
2022/03/17 01:53:34;;;;;;;63.85;23.60;;;;;;;5.74;90.85;93296.66;5002071;28;20041;-89
2022/03/17 02:00:05;;;;;;;69.97;24.13;;;;;;;5.82;90.80;93311.84;5036759;28;20033;-89
2022/03/17 02:02:57;;;;;;;77.07;25.00;;;;;;;5.76;91.40;93305.78;5022026;28;20487;-89
2022/03/17 02:05:48;;;;;;;;;;;;;;;;;;;;;
2022/03/17 02:08:45;;;;;;;81.07;28.40;;;;;;;5.76;91.42;93302.41;5035587;28;20041;-88
2022/03/17 02:15:14;;;;;;;;;;;;;;;;;;;;;
2022/03/17 02:18:16;;;;;;;;;;;;;;;;;;;;;
2022/03/17 02:21:13;;;;;;;;;;;;;;;;;;;;;
2022/03/17 02:28:02;;;;;;;;;;;;;;;;;;;;;
2022/03/17 02:33:52;;;;;;;133.55;39.58;;;;;;;6.12;93.92;93373.16;4972055;28;20065;-89
2022/03/17 02:36:53;;;;;;;187.07;48.67;;;;;;;5.79;93.83;93325.31;5006541;28;20042;-89
2022/03/17 02:39:37;;;;;;;;;;;;;;;;;;;;;
2022/03/17 02:46:21;;;;;;;190.77;49.95;;;;;;;5.94;90.86;93350.75;5035231;28;20463;-89
2022/03/17 02:48:46;;;;;;;194.15;52.30;;;;;;;5.93;91.74;93365.56;5032865;28;20124;-89
2022/03/17 02:51:12;;;;;;;211.23;53.92;;;;;;;5.85;92.20;93358.16;5016976;28;20097;-88
2022/03/17 02:53:38;;;;;;;215.52;57.15;;;;;;;5.85;92.42;93358.16;4984392;28;20037;-89
2022/03/17 02:56:10;;;;;;;190.80;54.78;;;;;;;5.81;92.24;93354.47;5016862;28;20490;-89
2022/03/17 02:59:22;;;;;;;194.90;53.58;;;;;;;5.41;92.53;93295.63;5017723;28;20041;-89
2022/03/17 03:01:52;;;;;;;184.73;51.92;;;;;;;5.76;91.82;93329.16;5033065;28;20038;-89
2022/03/17 03:08:27;;;;;;;195.30;54.78;;;;;;;5.45;91.27;93296.72;5054980;28;20115;-88
2022/03/17 03:11:14;;;;;;;;;;;;;;;;;;;;;
2022/03/17 03:14:00;;;;;;;;;;;;;;;;;;;;;
2022/03/17 03:21:08;;;;;;;229.55;56.97;;;;;;;5.40;89.93;93310.41;4964338;28;20104;-89
2022/03/17 03:23:51;;;;;;;209.60;58.00;;;;;;;5.38;90.16;93306.44;4999220;28;20044;-89
2022/03/17 03:27:37;;;;;;;;;;;;;;;;;;;;;
2022/03/17 03:59:33;;;;;;;;;;;;;;;;;;;;;
2022/03/17 04:02:25;;;;;;;257.58;63.67;;;;;;;5.22;87.22;93314.00;5012075;28;20046;-89
2022/03/17 04:06:11;;;;;;;229.88;61.67;;;;;;;5.59;86.81;93362.94;5012151;28;20143;-89
2022/03/17 04:08:48;;;;;;;237.95;61.25;;;;;;;5.52;86.98;93359.69;4994962;28;20038;-89
2022/03/17 04:11:37;;;;;;;238.10;61.33;;;;;;;5.35;87.56;93338.09;4981454;28;20045;-89
2022/03/17 04:14:18;;;;;;;;;;;;;;;;;;;;;
2022/03/17 04:21:33;;;;;;;;;;;;;;;;;;;;;
2022/03/17 04:32:09;;;;;;;229.98;59.60;;;;;;;5.60;87.03;93384.50;5054066;28;20040;-88
2022/03/17 04:34:40;;;;;;;254.57;61.90;;;;;;;5.46;87.06;93368.41;5036529;28;20037;-88
2022/03/17 04:41:02;;;;;;;247.45;64.45;;;;;;;5.44;87.02;93370.44;5056669;28;20266;-90
2022/03/17 04:43:28;;;;;;;242.55;62.50;;;;;;;5.62;86.80;93391.03;5039217;28;20044;-89
2022/03/17 04:45:56;;;;;;;258.20;65.47;;;;;;;5.59;86.83;93378.50;5038790;28;20171;-89
2022/03/17 04:56:14;;;;;;;;;;;;;;;5.59;87.48;93403.69;5054616;28;20051;-89
2022/03/17 05:07:08;;;;;;;245.48;60.83;;;;;;;5.62;86.56;93411.81;5011281;28;20136;-89
2022/03/17 05:10:07;;;;;;;250.18;63.97;;;;;;;5.65;86.46;93410.53;5023026;28;20057;-89
2022/03/17 05:12:34;;;;;;;261.35;61.55;;;;;;;5.50;86.22;93398.09;5030681;28;20049;-89
2022/03/17 05:14:59;;;;;;;266.77;66.32;;;;;;;5.48;86.73;93407.91;5004561;28;20042;-89
2022/03/17 05:17:25;;;;;;;252.75;64.80;;;;;;;5.50;86.88;93416.28;5022197;28;20044;-88
2022/03/17 05:19:50;;;;;;;252.93;64.28;;;;;;;5.49;87.49;93411.28;5022058;28;20033;-89
2022/03/17 05:22:16;;;;;;;259.83;61.95;;;;;;;5.55;87.27;93418.16;5022692;28;20037;-90
2022/03/17 05:24:42;;;;;;;265.60;66.50;;;;;;;5.56;87.35;93420.53;5008354;28;20120;-87
2022/03/17 05:27:07;;;;;;;253.50;63.42;;;;;;;5.55;87.37;93426.75;5016637;28;20040;-87
2022/03/17 05:33:26;;;;;;;261.02;61.95;;;;;;;5.45;87.30;93411.00;5056314;28;20048;-87
2022/03/17 05:35:52;;;;;;;243.90;63.65;;;;;;;5.53;87.57;93428.78;5038212;28;20049;-88
2022/03/17 05:38:17;;;;;;;244.57;63.15;;;;;;;5.52;87.74;93426.44;5054922;28;20396;-87
2022/03/17 05:40:44;;;;;;;272.33;64.88;;;;;;;5.56;87.50;93430.94;5038672;28;20483;-87
2022/03/17 05:43:10;;;;;;;268.10;67.10;;;;;;;5.47;87.42;93414.16;5021554;28;20045;-86
2022/03/17 05:45:37;;;;;;;243.63;66.63;;;;;;;5.57;87.53;93429.91;5046584;28;20017;-86
2022/03/17 05:48:05;;;;;;;250.23;64.30;;;;;;;5.59;87.36;93433.06;5036691;28;20042;-86
2022/03/17 05:50:34;;;;;;;263.27;64.40;;;;;;;5.50;87.44;93412.88;5037968;28;20098;-86
2022/03/17 05:53:00;;;;;;;272.60;68.05;;;;;;;5.61;87.74;93427.63;5037833;28;20131;-86
2022/03/17 05:55:26;;;;;;;245.32;64.88;;;;;;;5.51;88.11;93412.63;5055561;28;20025;-86
2022/03/17 05:57:54;;;;;;;248.38;63.90;;;;;;;5.59;87.63;93421.88;5038031;28;20036;-86
2022/03/17 06:00:26;;;;;;;243.65;66.20;;;;;;;5.56;87.27;93417.94;5055321;28;20079;-86
2022/03/17 06:02:52;;;;;;;252.50;63.17;;;;;;;5.66;87.21;93437.34;5037441;28;20041;-86
2022/03/17 06:05:18;;;;;;;250.93;65.55;;;;;;;5.66;87.56;93429.53;5054794;28;20031;-86
2022/03/17 06:07:47;;;;;;;229.73;64.10;;;;;;;5.61;87.52;93420.63;5049995;28;20080;-88
2022/03/17 06:10:18;;;;;;;255.32;64.05;;;;;;;5.65;87.96;93433.94;5021693;28;20056;-87
2022/03/17 06:12:44;;;;;;;259.17;66.72;;;;;;;5.46;88.23;93406.56;5053336;28;20049;-88
2022/03/17 06:15:11;;;;;;;250.55;63.88;;;;;;;5.66;87.68;93434.72;5050814;28;20046;-86
2022/03/17 06:17:48;;;;;;;265.05;66.55;;;;;;;5.64;88.07;93434.97;5052813;28;20115;-86
2022/03/17 06:20:18;;;;;;;243.85;64.32;;;;;;;5.62;87.97;93432.59;5051828;28;20496;-88
2022/03/17 06:22:45;;;;;;;240.95;62.50;;;;;;;5.66;88.22;93427.72;5051354;28;20466;-86
2022/03/17 06:25:15;;;;;;;247.52;62.13;;;;;;;5.69;87.88;93431.66;5036904;28;20032;-91
2022/03/17 06:27:43;;;;;;;256.95;64.47;;;;;;;5.59;88.06;93420.06;5053617;28;20045;-86
2022/03/17 06:30:12;;;;;;;240.32;64.93;;;;;;;5.74;88.73;93431.75;5053212;28;20375;-86
2022/03/17 06:32:39;;;;;;;254.70;61.70;;;;;;;5.75;88.37;93436.72;5053724;28;20048;-86
2022/03/17 06:35:10;;;;;;;236.27;63.03;;;;;;;5.79;88.71;93443.03;5053574;28;20087;-88
2022/03/17 06:37:37;;;;;;;249.00;64.45;;;;;;;5.81;88.59;93435.00;5052751;28;20116;-85
2022/03/17 06:40:07;;;;;;;231.82;61.92;;;;;;;5.82;88.23;93441.78;5019698;28;20046;-86
2022/03/17 06:42:33;;;;;;;246.63;63.30;;;;;;;5.86;88.37;93437.69;5035905;28;20145;-86
2022/03/17 06:44:59;;;;;;;251.20;64.90;;;;;;;5.80;88.34;93428.22;5053146;28;20043;-85
2022/03/17 06:47:24;;;;;;;236.27;62.08;;;;;;;5.91;88.36;93434.41;5036400;28;20044;-85
2022/03/17 06:49:51;;;;;;;256.73;66.50;;;;;;;5.94;88.53;93444.31;5036370;28;20029;-85
2022/03/17 06:52:17;;;;;;;268.48;69.82;;;;;;;5.94;88.29;93439.13;5035956;28;20041;-86
2022/03/17 06:54:43;;;;;;;245.75;64.47;;;;;;;5.95;88.21;93433.72;5054020;28;20045;-85
2022/03/17 06:57:08;;;;;;;262.35;66.80;;;;;;;5.88;88.45;93417.47;5052598;28;20517;-86
2022/03/17 06:59:34;;;;;;;256.27;64.60;;;;;;;5.95;88.46;93430.34;5035821;28;20126;-86
2022/03/17 07:02:00;;;;;;;259.67;66.55;;;;;;;5.92;88.38;93420.38;5054033;28;20052;-85
2022/03/17 07:04:26;;;;;;;252.90;65.05;;;;;;;6.00;88.34;93428.59;5036233;28;20470;-86
2022/03/17 07:06:51;;;;;;;262.73;65.85;;;;;;;5.96;87.76;93421.50;5053282;28;20079;-86
2022/03/17 07:09:17;;;;;;;253.60;66.45;;;;;;;6.02;88.06;93436.97;5035972;28;20045;-86
2022/03/17 07:11:44;;;;;;;263.92;67.00;;;;;;;6.10;88.31;93446.16;5053036;28;20398;-85
2022/03/17 07:14:10;;;;;;;241.98;64.85;;;;;;;6.10;87.86;93437.59;5035998;28;20120;-86
2022/03/17 07:16:36;;;;;;;259.90;65.38;;;;;;;6.16;88.06;93447.06;5052598;28;20041;-86
2022/03/17 07:19:03;;;;;;;237.82;65.03;;;;;;;6.14;88.16;93438.69;5052629;28;20494;-86
2022/03/17 07:21:29;;;;;;;219.05;61.25;;;;;;;6.28;87.32;93447.75;5036005;28;20119;-86
2022/03/17 07:23:54;;;;;;;248.63;63.10;;;;;;;6.22;86.77;93435.72;5052501;28;20084;-86
2022/03/17 07:26:20;;;;;;;254.50;69.82;;;;;;;6.00;86.61;93433.81;5052276;28;20044;-86
2022/03/17 07:28:48;;;;;;;264.80;66.30;;;;;;;6.11;86.86;93439.19;5052700;28;20135;-85
2022/03/17 07:31:13;;;;;;;247.30;66.88;;;;;;;5.98;87.11;93438.44;5035826;28;20036;-85
2022/03/17 07:33:39;;;;;;;258.88;65.57;;;;;;;5.76;87.55;93407.09;5052697;28;20036;-86
2022/03/17 07:36:05;;;;;;;271.38;63.63;;;;;;;5.92;87.59;93444.56;5035680;28;20037;-86
2022/03/17 07:38:31;;;;;;;267.30;67.57;;;;;;;6.00;87.68;93443.41;5053285;28;20127;-85
2022/03/17 07:40:56;;;;;;;250.95;63.55;;;;;;;5.97;88.02;93439.47;5035506;28;20393;-86
2022/03/17 07:43:23;;;;;;;250.82;63.45;;;;;;;5.87;88.10;93428.88;5052918;28;20041;-86
2022/03/17 07:46:15;;;;;;;;;;;;;;;6.00;88.26;93444.19;5022588;28;20564;-85
2022/03/17 07:48:59;;;;;;;239.43;59.63;;;;;;;5.96;88.39;93437.88;5053680;28;20342;-85
2022/03/17 07:51:35;;;;;;;255.70;65.10;;;;;;;6.07;87.88;93438.06;5052295;28;20044;-84
2022/03/17 07:54:01;;;;;;;251.68;64.18;;;;;;;6.11;87.81;93439.97;5052365;28;20497;-84
2022/03/17 07:56:27;;;;;;;266.40;64.47;;;;;;;6.10;87.65;93432.38;5052364;28;20037;-85
2022/03/17 07:58:52;;;;;;;242.38;63.97;;;;;;;6.05;86.73;93413.09;5052504;28;20037;-85
2022/03/17 08:01:24;;;;;;;236.18;61.78;;;;;;;6.27;86.48;93450.63;5052283;28;20052;-85
2022/03/17 08:03:50;;;;;;;241.18;62.80;;;;;;;6.20;87.21;93448.94;5020270;28;20037;-85
2022/03/17 08:06:18;;;;;;;243.80;63.10;;;;;;;6.13;86.62;93442.34;5053134;28;20041;-85
2022/03/17 08:08:46;;;;;;;234.90;61.47;;;;;;;6.19;86.70;93438.78;5031913;28;20058;-84
2022/03/17 08:11:12;;;;;;;248.68;62.80;;;;;;;6.20;86.01;93448.94;5021690;28;20052;-85
2022/03/17 08:13:38;;;;;;;241.63;64.15;;;;;;;6.09;87.22;93436.03;5023130;28;20068;-85
2022/03/17 08:16:06;;;;;;;254.00;65.55;;;;;;;6.08;87.41;93456.03;5057280;28;20039;-85
2022/03/17 08:18:34;;;;;;;251.45;62.92;;;;;;;6.16;87.34;93458.25;5056142;28;20132;-85
2022/03/17 08:21:01;;;;;;;242.65;63.05;;;;;;;6.12;87.79;93466.75;5057277;28;20033;-85
2022/03/17 08:23:26;;;;;;;237.48;62.95;;;;;;;6.16;87.20;93462.66;5039379;28;20029;-85
2022/03/17 08:25:52;;;;;;;233.93;62.35;;;;;;;6.15;86.97;93461.09;5039420;28;20040;-85
2022/03/17 08:28:18;;;;;;;253.02;65.32;;;;;;;6.14;86.85;93459.50;5055702;28;20040;-85
2022/03/17 08:30:48;;;;;;;247.57;66.45;;;;;;;6.25;87.20;93479.44;5057202;28;20033;-85
2022/03/17 08:33:15;;;;;;;259.35;66.47;;;;;;;6.27;86.42;93472.22;5039509;28;20483;-84
2022/03/17 08:35:42;;;;;;;234.48;61.67;;;;;;;6.35;86.12;93482.22;5056953;28;20037;-85
2022/03/17 08:38:09;;;;;;;251.00;64.80;;;;;;;6.38;85.95;93486.94;5038849;28;20041;-85
2022/03/17 08:40:38;;;;;;;243.90;59.83;;;;;;;6.40;85.38;93478.91;5039501;28;20033;-85
2022/03/17 08:43:08;;;;;;;242.48;58.97;;;;;;;6.43;85.43;93489.63;5055526;28;20048;-85
2022/03/17 08:51:02;;;;;;;240.38;62.33;;;;;;;6.36;85.01;93494.19;5024997;28;20495;-85
2022/03/17 08:53:28;;;;;;;253.32;61.47;;;;;;;6.42;85.29;93497.69;5056337;28;20075;-85
2022/03/17 08:55:53;;;;;;;255.77;59.53;;;;;;;6.43;85.14;93500.03;5022560;28;20128;-85
2022/03/17 08:58:19;;;;;;;215.98;56.88;;;;;;;6.54;84.60;93510.63;5055384;28;20074;-84
2022/03/17 09:00:45;;;;;;;216.55;55.45;;;;;;;6.46;84.59;93498.78;5056318;28;20090;-85
2022/03/17 09:03:11;;;;;;;237.65;58.67;;;;;;;6.40;84.17;93495.31;5055221;28;20056;-85
2022/03/17 09:05:37;;;;;;;235.15;58.92;;;;;;;6.42;85.31;93501.06;5038670;28;20381;-84
2022/03/17 09:08:06;;;;;;;233.27;59.95;;;;;;;6.50;85.22;93514.72;5054923;28;20128;-84
2022/03/17 09:10:34;;;;;;;237.15;60.17;;;;;;;6.35;85.36;93491.81;5038413;28;20044;-85
2022/03/17 09:13:06;;;;;;;249.82;62.55;;;;;;;6.45;85.01;93510.22;5038858;28;20041;-85
2022/03/17 09:15:33;;;;;;;251.30;64.68;;;;;;;6.39;85.55;93511.91;5056217;28;20060;-85
2022/03/17 09:18:00;;;;;;;253.82;65.40;;;;;;;6.34;85.83;93506.66;5055107;28;20029;-85
2022/03/17 09:20:26;;;;;;;242.95;66.40;;;;;;;6.46;85.15;93517.78;5055957;28;20045;-85
2022/03/17 09:22:52;;;;;;;244.27;63.83;;;;;;;6.41;85.47;93527.31;5038085;28;20052;-85
2022/03/17 09:25:23;;;;;;;247.23;62.30;;;;;;;6.46;85.45;93525.59;5038261;28;20075;-85
2022/03/17 09:27:50;;;;;;;244.27;62.45;;;;;;;6.51;85.27;93529.28;5038235;28;20509;-86
2022/03/17 09:30:16;;;;;;;246.68;63.90;;;;;;;6.51;85.25;93526.69;5038012;28;20029;-84
2022/03/17 09:32:41;;;;;;;248.50;63.15;;;;;;;6.44;85.01;93514.63;5038044;28;20037;-85
2022/03/17 09:35:07;;;;;;;248.00;60.97;;;;;;;6.55;84.96;93527.78;5055525;28;20037;-85
2022/03/17 09:37:33;;;;;;;232.63;63.05;;;;;;;6.56;84.80;93535.38;5021430;28;20511;-85
2022/03/17 09:39:59;;;;;;;238.52;60.45;;;;;;;6.52;85.17;93531.66;5037933;28;20048;-85
2022/03/17 09:42:25;;;;;;;240.27;63.13;;;;;;;6.53;84.67;93540.25;5038258;28;20041;-84
2022/03/17 09:44:52;;;;;;;237.10;61.95;;;;;;;6.32;84.93;93534.69;5054528;28;20033;-85
2022/03/17 09:47:20;;;;;;;237.73;61.38;;;;;;;6.41;85.57;93541.09;5055390;28;20470;-85
2022/03/17 09:49:47;;;;;;;252.48;59.60;;;;;;;6.40;86.27;93536.94;5055653;28;20040;-85
2022/03/17 09:52:15;;;;;;;229.70;57.28;;;;;;;6.13;85.83;93535.94;5021126;28;20047;-84
2022/03/17 09:54:41;;;;;;;222.50;61.92;;;;;;;6.23;85.89;93543.91;5033823;28;20029;-84
2022/03/17 09:57:08;;;;;;;233.02;63.75;;;;;;;6.10;86.01;93536.38;5054268;28;20098;-84
2022/03/17 09:59:33;;;;;;;232.20;60.28;;;;;;;6.22;86.18;93550.91;5054363;28;20127;-84
2022/03/17 10:02:00;;;;;;;243.88;62.20;;;;;;;6.30;86.36;93552.34;5055136;28;20128;-85
2022/03/17 10:04:35;;;;;;;243.13;62.05;;;;;;;6.14;86.94;93543.47;5055131;28;20025;-84
2022/03/17 10:07:01;;;;;;;251.25;65.07;;;;;;;6.24;87.19;93553.28;5052581;28;20044;-84
2022/03/17 10:09:30;;;;;;;249.23;64.28;;;;;;;6.09;88.12;93540.00;5053964;28;20501;-85
2022/03/17 10:12:05;;;;;;;257.75;67.95;;;;;;;6.13;88.70;93551.53;5053919;28;20029;-84
2022/03/17 10:14:40;;;;;;;281.27;67.93;;;;;;;6.05;89.33;93558.66;5037436;28;20097;-84
2022/03/17 10:17:28;;;;;;;273.13;66.25;;;;;;;6.09;89.68;93556.38;5053602;28;20041;-85
2022/03/17 10:20:22;;;;;;;257.05;66.93;;;;;;;6.13;89.22;93552.31;5054984;28;20536;-85
2022/03/17 10:22:56;;;;;;;278.85;68.18;;;;;;;5.90;89.49;93547.97;5037295;28;20486;-85
2022/03/17 10:25:24;;;;;;;243.63;64.65;;;;;;;6.10;89.48;93552.75;5054715;28;20064;-85
2022/03/17 10:27:51;;;;;;;266.30;68.60;;;;;;;6.11;89.05;93562.16;5055228;28;20033;-85
2022/03/17 10:34:04;;;;;;;239.82;62.78;;;;;;;5.84;89.94;93564.47;5054681;28;20083;-85
2022/03/17 10:36:30;;;;;;;267.02;66.32;;;;;;;5.76;90.26;93551.81;5037120;28;20040;-84
2022/03/17 10:38:55;;;;;;;289.27;68.60;;;;;;;5.81;90.43;93567.53;5036729;28;20036;-84
2022/03/17 10:41:21;;;;;;;264.27;67.93;;;;;;;5.77;90.27;93554.19;5053380;28;20115;-84
2022/03/17 10:43:47;;;;;;;256.63;66.95;;;;;;;5.97;90.10;93574.63;5037317;28;20033;-84
2022/03/17 10:46:19;;;;;;;255.70;65.07;;;;;;;6.01;88.89;93562.75;5020258;28;20071;-84
2022/03/17 10:49:02;;;;;;;261.55;64.38;;;;;;;6.09;88.68;93559.00;5053349;28;20045;-84
2022/03/17 10:51:40;;;;;;;265.10;65.85;;;;;;;6.28;88.73;93569.19;5053342;28;20120;-85
2022/03/17 10:54:18;;;;;;;252.30;65.80;;;;;;;6.34;88.45;93571.66;5036713;28;20493;-84
2022/03/17 10:56:59;;;;;;;251.88;65.55;;;;;;;6.38;87.75;93567.56;5054247;28;20037;-84
2022/03/17 10:59:42;;;;;;;266.02;69.97;;;;;;;6.25;87.81;93565.25;5053892;28;20048;-84
2022/03/17 11:02:08;;;;;;;262.63;67.45;;;;;;;6.01;87.88;93515.97;5036526;28;20048;-84
2022/03/17 11:04:39;;;;;;;270.70;69.43;;;;;;;6.33;87.70;93549.28;5053073;28;20025;-84
2022/03/17 11:07:07;;;;;;;272.23;68.55;;;;;;;6.40;88.37;93547.31;5053258;28;20390;-85
2022/03/17 11:09:36;;;;;;;273.02;67.22;;;;;;;6.59;87.73;93557.53;5052641;28;20152;-84
2022/03/17 11:12:04;;;;;;;267.13;65.63;;;;;;;6.53;86.56;93555.84;5052605;28;20123;-85
2022/03/17 11:14:29;;;;;;;257.02;66.90;;;;;;;6.54;86.94;93557.44;5036636;28;20041;-85
2022/03/17 11:16:58;;;;;;;284.25;74.20;;;;;;;6.48;86.66;93535.75;5036472;28;20413;-85
2022/03/17 11:19:24;;;;;;;289.45;69.63;;;;;;;6.57;86.72;93538.75;5053281;28;20039;-85
2022/03/17 11:22:05;;;;;;;307.05;74.53;;;;;;;6.59;86.29;93553.09;5036074;28;20441;-84
2022/03/17 11:24:30;;;;;;;270.63;66.95;;;;;;;6.55;86.19;93531.19;5052792;28;20056;-85
2022/03/17 11:27:17;;;;;;;265.48;69.72;;;;;;;6.61;86.10;93532.06;5035985;28;20454;-84
2022/03/17 11:29:47;;;;;;;259.98;66.07;;;;;;;6.58;86.50;93541.13;5053572;28;20037;-85
2022/03/17 11:32:54;;;;;;;277.25;73.65;;;;;;;6.39;87.07;93534.56;5053491;28;20037;-85
2022/03/17 11:39:18;;;;;;;270.40;69.20;;;;;;;6.15;88.55;93513.88;5011233;28;20087;-85
2022/03/17 11:45:15;;;;;;;272.20;69.03;;;;;;;6.57;87.12;93533.56;5051224;28;20083;-84
2022/03/17 11:47:54;;;;;;;254.77;66.35;;;;;;;6.70;85.76;93528.03;5053460;28;20095;-84
2022/03/17 11:50:25;;;;;;;285.42;68.72;;;;;;;6.73;85.52;93514.53;5052834;28;20041;-85
2022/03/17 11:53:02;;;;;;;293.23;72.70;;;;;;;6.81;86.00;93521.19;5053363;28;20036;-85
2022/03/17 11:55:51;;;;;;;246.77;65.70;;;;;;;6.92;85.05;93514.31;5052348;28;20029;-85
2022/03/17 11:58:19;;;;;;;256.33;68.22;;;;;;;6.98;83.91;93515.97;5053624;28;20052;-85
2022/03/17 12:00:46;;;;;;;268.00;66.18;;;;;;;6.97;83.68;93496.94;5052191;28;20502;-87
2022/03/17 12:03:12;;;;;;;243.30;66.95;;;;;;;6.98;83.66;93510.75;5052055;28;20500;-85
2022/03/17 12:05:40;;;;;;;251.55;64.90;;;;;;;7.13;83.87;93507.59;5052239;28;20052;-85
2022/03/17 12:08:06;;;;;;;252.93;69.30;;;;;;;7.19;82.56;93501.44;5051816;28;20045;-85
2022/03/17 12:11:12;;;;;;;265.83;66.60;;;;;;;7.38;81.37;93509.75;5053055;28;20115;-85
2022/03/17 12:13:37;;;;;;;240.95;65.38;;;;;;;7.34;81.82;93499.03;4972089;28;20050;-85
2022/03/17 12:16:07;;;;;;;250.70;63.88;;;;;;;7.46;81.37;93494.47;4972197;28;20531;-85
2022/03/17 12:19:01;;;;;;;259.35;64.95;;;;;;;7.41;81.57;93498.84;5012050;28;20053;-85
2022/03/17 12:21:58;;;;;;;238.43;64.28;;;;;;;7.75;81.56;93488.31;5035303;28;20025;-85
2022/03/17 12:24:47;;;;;;;225.40;64.13;;;;;;;7.82;79.85;93492.31;5035679;28;20048;-85
2022/03/17 12:27:30;;;;;;;217.25;62.47;;;;;;;8.07;79.08;93465.69;5035412;28;20083;-85
2022/03/17 12:30:14;;;;;;;208.55;59.97;;;;;;;7.81;78.12;93422.94;5035206;28;20037;-85
2022/03/17 12:32:48;;;;;;;211.50;58.22;;;;;;;8.09;77.37;93452.44;5052007;28;20059;-85
2022/03/17 12:35:15;;;;;;;208.15;56.90;;;;;;;7.97;78.88;93452.56;5051971;28;20509;-84
2022/03/17 12:37:43;;;;;;;189.48;55.90;;;;;;;7.75;78.29;93421.34;5051990;28;20037;-85
2022/03/17 12:40:19;;;;;;;198.02;57.58;;;;;;;7.78;79.61;93451.31;5035365;28;20098;-84
2022/03/17 12:42:47;;;;;;;211.43;59.58;;;;;;;7.63;79.69;93416.25;5035251;28;20071;-84
2022/03/17 12:45:17;;;;;;;185.77;59.38;;;;;;;8.03;79.90;93453.41;5051687;28;20090;-84
2022/03/17 12:47:48;;;;;;;190.07;59.90;;;;;;;7.83;80.11;93422.69;5035144;28;20048;-87
2022/03/17 12:50:19;;;;;;;197.32;57.97;;;;;;;7.96;79.10;93411.88;5022443;28;20055;-85
2022/03/17 12:52:46;;;;;;;180.93;56.38;;;;;;;7.91;78.51;93394.38;5035223;28;20036;-85
2022/03/17 12:55:14;;;;;;;177.55;56.40;;;;;;;8.38;77.48;93413.81;5038079;28;20119;-85
2022/03/17 12:57:41;;;;;;;167.95;52.70;;;;;;;8.65;75.98;93394.72;5057794;28;20097;-85
2022/03/17 13:00:12;;;;;;;183.27;54.53;;;;;;;9.02;75.58;93414.78;5042077;28;20128;-85
2022/03/17 13:02:46;;;;;;;175.38;54.83;;;;;;;8.90;76.03;93418.38;5026043;28;20490;-85
2022/03/17 13:08:00;;;;;;;161.73;53.00;;;;;;;9.03;75.65;93414.53;5058009;28;20478;-85
2022/03/17 13:10:27;;;;;;;149.57;50.42;;;;;;;8.66;75.69;93381.41;5041758;28;20090;-85
2022/03/17 13:15:43;;;;;;;153.95;51.92;;;;;;;8.47;77.66;93419.38;5044144;28;20406;-85
2022/03/17 13:18:11;;;;;;;142.93;47.30;;;;;;;8.10;78.75;93413.03;5041690;28;20075;-85
2022/03/17 13:20:39;;;;;;;149.57;50.05;;;;;;;8.24;78.96;93412.63;5058287;28;20062;-85
2022/03/17 13:23:06;;;;;;;139.18;50.95;;;;;;;7.92;80.58;93410.78;5025149;28;20048;-85
2022/03/17 13:25:38;;;;;;;152.52;48.85;;;;;;;7.94;80.30;93426.97;5041453;28;20033;-85
2022/03/17 13:28:07;;;;;;;130.38;45.30;;;;;;;7.86;79.71;93398.75;5041681;28;20040;-85
2022/03/17 13:30:35;;;;;;;140.27;48.58;;;;;;;7.67;80.56;93374.84;5076038;28;20067;-85
2022/03/17 13:33:08;;;;;;;142.00;49.50;;;;;;;8.06;80.56;93432.84;5041333;28;20482;-85
2022/03/17 13:35:39;;;;;;;116.68;43.22;;;;;;;7.83;81.47;93427.91;5041090;28;20063;-86
2022/03/17 13:38:19;;;;;;;136.77;48.95;;;;;;;7.87;82.08;93429.00;5075983;28;20052;-85
2022/03/17 13:40:56;;;;;;;136.52;48.03;;;;;;;8.02;80.75;93428.38;5049838;28;20056;-87
2022/03/17 13:43:36;;;;;;;123.70;42.83;;;;;;;7.79;81.89;93422.41;5054457;28;20079;-85
2022/03/17 13:46:16;;;;;;;125.95;46.38;;;;;;;7.48;83.38;93419.47;5055501;28;20037;-86
2022/03/17 13:48:42;;;;;;;127.18;45.85;;;;;;;7.89;82.28;93424.34;5053883;28;20047;-85
2022/03/17 13:51:07;;;;;;;116.32;45.00;;;;;;;8.05;81.40;93404.41;5037554;28;20132;-86
2022/03/17 13:53:39;;;;;;;129.82;46.45;;;;;;;8.44;80.25;93419.88;5037444;28;20118;-85
2022/03/17 13:56:09;;;;;;;116.35;44.53;;;;;;;8.56;78.90;93420.50;5055142;28;20175;-85
2022/03/17 13:58:37;;;;;;;120.25;43.83;;;;;;;8.44;79.08;93412.81;5053904;28;20080;-85
2022/03/17 14:01:08;;;;;;;112.15;45.75;;;;;;;8.30;80.20;93394.16;5053757;28;20037;-85
2022/03/17 14:03:35;;;;;;;113.47;42.20;;;;;;;8.50;78.82;93409.22;5037090;28;20127;-85
2022/03/17 14:06:07;;;;;;;100.97;41.28;;;;;;;8.74;78.33;93419.31;5037219;28;20467;-85
2022/03/17 14:08:35;;;;;;;94.72;39.35;;;;;;;8.79;77.85;93398.44;5035593;28;20052;-88
2022/03/17 14:11:03;;;;;;;94.22;39.42;;;;;;;8.87;77.19;93416.25;5031780;28;20394;-85
2022/03/17 14:13:30;;;;;;;92.68;38.85;;;;;;;8.71;77.23;93404.94;5037015;28;20120;-85
2022/03/17 14:15:56;;;;;;;100.25;40.95;;;;;;;8.88;76.73;93398.75;5036731;28;20032;-86
2022/03/17 14:18:21;;;;;;;81.85;36.70;;;;;;;8.68;76.73;93407.25;5045143;28;20458;-85
2022/03/17 14:20:47;;;;;;;91.38;39.95;;;;;;;8.89;76.32;93400.31;5036749;28;20142;-85
2022/03/17 14:25:57;;;;;;;84.35;35.97;;;;;;;8.99;76.26;93397.00;5025557;28;20068;-85
2022/03/17 14:28:23;;;;;;;91.35;37.67;;;;;;;8.99;75.44;93386.56;5042403;28;20490;-85
2022/03/17 14:30:49;;;;;;;81.65;35.22;;;;;;;9.07;75.50;93404.34;5073882;28;20525;-85
2022/03/17 14:33:15;;;;;;;81.07;34.75;;;;;;;9.15;75.42;93385.56;5074533;28;20055;-85
2022/03/17 14:35:43;;;;;;;76.32;34.83;;;;;;;8.93;74.75;93383.13;5075061;28;20457;-85
2022/03/17 14:38:09;;;;;;;70.38;33.20;;;;;;;9.08;75.03;93385.03;5057173;28;20049;-85
2022/03/17 14:40:35;;;;;;;57.28;28.63;;;;;;;9.14;73.73;93376.16;5073495;28;20134;-85